Terminal Aerodrome Forecast
Issued by NWS

Home | Current Version | Previous Version | Text Only | Print | Product List | Glossary On
Versions: 1 2 3 4 5 6 7 8 9 10 11 12 13 14 15 16 17 18 19
000
FTUS45 KABQ 291747 RRA
TAFTCC
TAF
KTCC 291747Z 2918/3018 08012KT P6SM VCSH BKN080
     FM300000 08010KT P6SM VCTS OVC050CB
      TEMPO 3000/3004 VRB15G25KT 4SM TSRA BKN040CB
     FM300600 01005KT P6SM VCSH OVC060=

USA.gov is the U.S. government's official web portal to all federal, state and local government web resources and services.